createdAt,value
2023-02-03T00:01:38.664Z,1.93
2023-02-03T00:04:07.509Z,1.63
2023-02-03T00:06:35.897Z,1.80
2023-02-03T00:09:04.213Z,1.40
2023-02-03T00:11:34.257Z,1.40
2023-02-03T00:14:02.733Z,1.50
2023-02-03T00:16:31.220Z,1.10
2023-02-03T00:18:59.836Z,1.60
2023-02-03T00:21:28.230Z,1.63
2023-02-03T00:23:56.445Z,1.67
2023-02-03T00:26:27.117Z,2.00
2023-02-03T00:28:56.640Z,1.30
2023-02-03T00:31:25.950Z,1.60
2023-02-03T00:33:58.355Z,1.60
2023-02-03T00:36:27.987Z,1.50
2023-02-03T00:38:56.142Z,1.20
2023-02-03T00:41:24.350Z,1.23
2023-02-03T00:43:53.214Z,1.50
2023-02-03T00:46:22.687Z,1.40
2023-02-03T00:48:50.795Z,1.83
2023-02-03T00:51:18.930Z,1.40
2023-02-03T00:53:47.072Z,1.90
2023-02-03T00:56:15.212Z,1.37
2023-02-03T00:58:43.321Z,1.93
2023-02-03T01:01:11.594Z,1.70
2023-02-03T01:03:41.311Z,1.23
2023-02-03T01:06:13.488Z,1.60
2023-02-03T01:08:41.772Z,1.40
2023-02-03T01:11:11.325Z,1.40
2023-02-03T01:13:39.789Z,1.80
2023-02-03T01:16:10.996Z,1.13
2023-02-03T01:18:40.936Z,1.50
2023-02-03T01:21:11.315Z,1.67
2023-02-03T01:23:39.581Z,1.60
2023-02-03T01:26:09.583Z,1.40
2023-02-03T01:28:38.156Z,1.40
2023-02-03T01:31:14.462Z,1.43
2023-02-03T01:33:47.076Z,1.70
2023-02-03T01:36:16.393Z,1.30
2023-02-03T01:38:45.174Z,1.20
2023-02-03T01:41:15.678Z,1.30
2023-02-03T01:43:45.511Z,1.27
2023-02-03T01:46:25.476Z,1.30
2023-02-03T01:48:57.480Z,1.37
2023-02-03T01:51:26.138Z,1.50
2023-02-03T01:53:55.583Z,1.40
2023-02-03T01:56:25.088Z,1.60
2023-02-03T01:58:53.516Z,1.40
2023-02-03T02:01:21.717Z,1.40
2023-02-03T02:03:53.854Z,1.63
2023-02-03T02:06:25.798Z,1.73
2023-02-03T02:08:55.145Z,1.20
2023-02-03T02:11:23.334Z,1.10
2023-02-03T02:13:54.247Z,1.33
2023-02-03T02:16:32.477Z,1.30
2023-02-03T02:19:25.777Z,1.77
2023-02-03T02:22:12.976Z,1.70
2023-02-03T02:25:02.735Z,1.20
2023-02-03T02:27:56.559Z,1.40
2023-02-03T02:30:44.127Z,1.20
2023-02-03T02:33:26.537Z,1.40
2023-02-03T02:36:00.368Z,1.40
2023-02-03T02:38:42.052Z,1.50
2023-02-03T02:41:17.119Z,1.30
2023-02-03T02:43:52.625Z,1.50
2023-02-03T02:46:28.825Z,1.10
2023-02-03T02:49:02.672Z,1.20
2023-02-03T02:51:32.483Z,1.30
2023-02-03T02:54:04.990Z,1.30
2023-02-03T02:56:35.778Z,1.00
2023-02-03T02:59:05.951Z,1.20
2023-02-03T03:01:34.532Z,1.20
2023-02-03T03:04:07.427Z,1.13
2023-02-03T03:06:40.977Z,1.47
2023-02-03T03:09:14.357Z,1.20
2023-02-03T03:11:48.032Z,1.37
2023-02-03T03:14:20.642Z,1.57
2023-02-03T03:16:55.181Z,1.00
2023-02-03T03:19:28.139Z,1.37
2023-02-03T03:21:58.942Z,1.57
2023-02-03T03:24:32.102Z,1.67
2023-02-03T03:27:08.058Z,1.53
2023-02-03T03:29:40.382Z,1.13
2023-02-03T03:32:08.574Z,1.60
2023-02-03T03:34:38.204Z,1.17
2023-02-03T03:37:12.880Z,1.40
2023-02-03T03:39:48.439Z,1.10
2023-02-03T03:42:25.111Z,0.93
2023-02-03T03:44:59.016Z,0.93
2023-02-03T03:47:32.363Z,1.03
2023-02-03T03:50:05.229Z,0.93
2023-02-03T03:52:36.912Z,0.90
2023-02-03T03:55:08.997Z,1.10
2023-02-03T03:57:41.167Z,1.03
2023-02-03T04:00:12.973Z,0.70
2023-02-03T04:02:43.780Z,1.07
2023-02-03T04:05:15.083Z,1.23
2023-02-03T04:07:44.817Z,0.87
2023-02-03T04:10:21.925Z,0.90
2023-02-03T04:12:50.072Z,1.20
2023-02-03T04:15:18.297Z,1.10
2023-02-03T04:17:46.445Z,1.00
2023-02-03T04:20:16.182Z,0.90
2023-02-03T04:22:44.378Z,0.90
2023-02-03T04:25:12.599Z,0.60
2023-02-03T04:27:40.772Z,0.87
2023-02-03T04:30:10.323Z,1.10
2023-02-03T04:32:38.477Z,0.90
2023-02-03T04:35:08.266Z,1.13
2023-02-03T04:37:37.748Z,1.07
2023-02-03T04:40:06.870Z,0.97
2023-02-03T04:42:35.209Z,0.90
2023-02-03T04:45:03.431Z,1.13
2023-02-03T04:47:31.605Z,1.20
2023-02-03T04:50:00.279Z,1.10
2023-02-03T04:52:28.627Z,0.90
2023-02-03T04:54:58.188Z,1.37
2023-02-03T04:57:26.380Z,1.10
2023-02-03T04:59:54.491Z,0.80
2023-02-03T05:02:22.607Z,1.03
2023-02-03T05:04:50.694Z,1.13
2023-02-03T05:07:18.837Z,0.73
2023-02-03T05:09:47.000Z,0.90
2023-02-03T05:12:16.481Z,1.10
2023-02-03T05:14:44.659Z,1.03
2023-02-03T05:17:12.801Z,0.93
2023-02-03T05:19:40.925Z,1.00
2023-02-03T05:22:09.060Z,1.03
2023-02-03T05:24:37.173Z,1.10
2023-02-03T05:27:05.420Z,0.83
2023-02-03T05:29:34.927Z,1.10
2023-02-03T05:32:03.144Z,0.70
2023-02-03T05:34:31.299Z,0.70
2023-02-03T05:37:00.873Z,1.00
2023-02-03T05:39:29.056Z,0.60
2023-02-03T05:41:58.300Z,0.83
2023-02-03T05:44:28.352Z,0.90
2023-02-03T05:46:59.754Z,1.00
2023-02-03T05:49:27.995Z,0.90
2023-02-03T05:51:56.867Z,1.20
2023-02-03T05:54:24.940Z,1.00
2023-02-03T05:56:53.446Z,0.80
2023-02-03T05:59:21.575Z,1.10
2023-02-03T06:01:49.740Z,0.80
2023-02-03T06:04:19.371Z,0.93
2023-02-03T06:06:48.175Z,0.90
2023-02-03T06:09:16.353Z,0.87
2023-02-03T06:11:44.437Z,0.70
2023-02-03T06:14:12.576Z,1.03
2023-02-03T06:16:40.738Z,1.77
2023-02-03T06:19:09.028Z,1.40
2023-02-03T06:21:38.572Z,2.77
2023-02-03T06:24:07.067Z,2.10
2023-02-03T06:26:35.241Z,1.60
2023-02-03T06:29:03.383Z,1.90
2023-02-03T06:31:31.699Z,1.20
2023-02-03T06:34:02.469Z,1.37
2023-02-03T06:36:30.607Z,1.60
2023-02-03T06:39:00.093Z,1.30
2023-02-03T06:41:30.695Z,1.30
2023-02-03T06:43:58.969Z,1.60
2023-02-03T06:46:30.123Z,1.60
2023-02-03T06:48:58.388Z,1.67
2023-02-03T06:51:26.571Z,1.20
2023-02-03T06:53:54.718Z,1.93
2023-02-03T06:56:24.168Z,2.40
2023-02-03T06:58:52.445Z,1.70
2023-02-03T07:01:20.673Z,2.13
2023-02-03T07:03:48.900Z,1.60
2023-02-03T07:06:17.360Z,1.73
2023-02-03T07:08:45.665Z,1.40
2023-02-03T07:11:13.792Z,1.57
2023-02-03T07:13:43.284Z,1.73
2023-02-03T07:16:11.460Z,1.40
2023-02-03T07:18:48.026Z,1.43
2023-02-03T07:21:18.070Z,1.90
2023-02-03T07:23:48.646Z,2.10
2023-02-03T07:26:17.641Z,2.20
2023-02-03T07:28:47.147Z,1.33
2023-02-03T07:31:15.436Z,1.40
2023-02-03T07:33:43.653Z,1.70
2023-02-03T07:36:12.890Z,1.40
2023-02-03T07:38:41.015Z,2.33
2023-02-03T07:41:09.174Z,1.60
2023-02-03T07:43:37.653Z,1.50
2023-02-03T07:46:07.294Z,1.27
2023-02-03T07:48:35.483Z,1.30
2023-02-03T07:51:03.718Z,1.20
2023-02-03T07:53:32.078Z,1.63
2023-02-03T07:56:02.043Z,1.23
2023-02-03T07:58:30.706Z,1.93
2023-02-03T08:00:59.326Z,2.03
2023-02-03T08:03:28.960Z,1.37
2023-02-03T08:05:57.095Z,1.70
2023-02-03T08:08:25.278Z,1.80
2023-02-03T08:10:53.363Z,1.73
2023-02-03T08:13:21.438Z,1.80
2023-02-03T08:15:49.720Z,2.37
2023-02-03T08:18:17.876Z,2.23
2023-02-03T08:20:48.156Z,1.90
2023-02-03T08:23:16.321Z,1.60
2023-02-03T08:25:44.455Z,1.63
2023-02-03T08:28:12.673Z,1.90
2023-02-03T08:30:40.877Z,1.80
2023-02-03T08:33:09.067Z,2.47
2023-02-03T08:35:37.167Z,2.40
2023-02-03T08:38:06.668Z,2.30
2023-02-03T08:40:34.788Z,2.50
2023-02-03T08:43:03.605Z,2.23
2023-02-03T08:45:31.736Z,1.87
2023-02-03T08:47:59.971Z,2.63
2023-02-03T08:50:28.315Z,1.63
2023-02-03T08:52:56.686Z,1.60
2023-02-03T08:55:26.293Z,1.70
2023-02-03T08:57:54.403Z,1.87
2023-02-03T09:00:23.233Z,1.70
2023-02-03T09:02:51.458Z,1.83
2023-02-03T09:05:19.755Z,1.50
2023-02-03T09:07:47.901Z,1.60
2023-02-03T09:10:16.265Z,1.27
2023-02-03T09:12:45.754Z,1.60
2023-02-03T09:15:13.878Z,1.47
2023-02-03T09:17:42.068Z,1.93
2023-02-03T09:20:13.321Z,1.30
2023-02-03T09:22:41.594Z,1.40
2023-02-03T09:25:10.159Z,1.50
2023-02-03T09:27:38.284Z,1.30
2023-02-03T09:30:09.008Z,1.50
2023-02-03T09:32:37.221Z,2.10
2023-02-03T09:35:05.729Z,1.67
2023-02-03T09:37:33.832Z,1.83
2023-02-03T09:40:02.556Z,1.70
2023-02-03T09:43:00.496Z,1.43
2023-02-03T09:45:31.837Z,1.60
2023-02-03T09:48:05.360Z,1.60
2023-02-03T09:50:36.741Z,1.97
2023-02-03T09:53:12.980Z,1.40
2023-02-03T09:55:44.012Z,1.47
2023-02-03T09:58:14.460Z,1.70
2023-02-03T10:00:47.649Z,1.10
2023-02-03T10:03:24.494Z,1.10
2023-02-03T10:06:13.812Z,1.80
2023-02-03T10:08:57.483Z,1.40
2023-02-03T10:11:41.448Z,2.00
2023-02-03T10:14:23.174Z,1.40
2023-02-03T10:17:06.548Z,1.47
2023-02-03T10:19:44.478Z,1.60
2023-02-03T10:22:17.553Z,1.37
2023-02-03T10:24:49.692Z,1.90
2023-02-03T10:27:20.605Z,1.30
2023-02-03T10:29:56.862Z,1.07
2023-02-03T10:32:28.331Z,1.80
2023-02-03T10:34:57.179Z,1.10
2023-02-03T10:37:30.465Z,1.40
2023-02-03T10:40:00.845Z,1.40
2023-02-03T10:42:51.225Z,1.50
2023-02-03T10:45:20.780Z,1.70
2023-02-03T10:47:53.863Z,1.50
2023-02-03T10:50:24.581Z,1.37
2023-02-03T10:52:52.787Z,1.40
2023-02-03T10:55:32.666Z,1.30
2023-02-03T10:58:18.735Z,1.43
2023-02-03T11:00:47.092Z,1.60
2023-02-03T11:03:24.928Z,1.20
2023-02-03T11:06:10.003Z,1.30
2023-02-03T11:08:42.387Z,1.43
2023-02-03T11:11:14.775Z,1.63
2023-02-03T11:13:42.916Z,1.10
2023-02-03T11:16:16.905Z,1.48
2023-02-03T11:18:55.162Z,0.97
2023-02-03T11:21:25.722Z,1.13
2023-02-03T11:24:02.738Z,1.20
2023-02-03T11:26:35.015Z,1.10
2023-02-03T11:29:06.261Z,1.30
2023-02-03T11:31:37.284Z,1.07
2023-02-03T11:34:15.388Z,1.30
2023-02-03T11:36:43.678Z,0.77
2023-02-03T11:39:26.070Z,1.50
2023-02-03T11:41:54.404Z,1.40
2023-02-03T11:44:26.221Z,0.87
2023-02-03T11:46:58.446Z,1.13
2023-02-03T11:50:08.512Z,1.53
2023-02-03T11:52:54.385Z,1.17
2023-02-03T11:55:41.940Z,1.40
2023-02-03T11:58:38.398Z,1.33
2023-02-03T12:01:17.491Z,1.27
2023-02-03T12:04:14.956Z,2.13
2023-02-03T12:07:12.587Z,1.10
2023-02-03T12:09:52.733Z,0.90
2023-02-03T12:12:44.457Z,1.10
2023-02-03T12:15:31.707Z,0.80
2023-02-03T12:18:32.960Z,1.17
2023-02-03T12:21:14.570Z,1.37
2023-02-03T12:23:53.055Z,0.87
2023-02-03T12:26:25.714Z,1.00
2023-02-03T12:29:03.110Z,1.10
2023-02-03T12:31:37.705Z,1.00
2023-02-03T12:34:14.828Z,1.27
2023-02-03T12:36:47.468Z,0.90
2023-02-03T12:39:21.933Z,0.90
2023-02-03T12:41:58.936Z,1.00
2023-02-03T12:44:33.632Z,1.00
2023-02-03T12:47:08.388Z,0.80
2023-02-03T12:49:44.452Z,1.20
2023-02-03T12:52:19.891Z,0.80
2023-02-03T12:54:53.593Z,1.10
2023-02-03T12:57:28.390Z,0.60
2023-02-03T13:00:07.344Z,0.80
2023-02-03T13:02:46.005Z,0.90
2023-02-03T13:05:23.999Z,1.00
2023-02-03T13:07:58.379Z,1.80
2023-02-03T13:10:32.809Z,1.10
2023-02-03T13:13:04.687Z,0.90
2023-02-03T13:15:38.449Z,1.03
2023-02-03T13:18:15.628Z,1.10
2023-02-03T13:20:43.910Z,0.97
2023-02-03T13:23:14.171Z,0.97
2023-02-03T13:25:54.978Z,1.10
2023-02-03T13:28:36.012Z,1.10
2023-02-03T13:31:25.190Z,1.40
2023-02-03T13:34:17.995Z,1.10
2023-02-03T13:37:17.720Z,1.67
2023-02-03T13:40:04.904Z,1.03
2023-02-03T13:42:37.549Z,1.00
2023-02-03T13:45:14.129Z,0.93
2023-02-03T13:47:48.067Z,1.07
2023-02-03T13:50:23.571Z,1.33
2023-02-03T13:52:59.435Z,1.00
2023-02-03T13:55:31.834Z,1.33
2023-02-03T13:58:00.141Z,1.30
2023-02-03T14:01:03.316Z,1.30
2023-02-03T14:03:47.219Z,1.23
2023-02-03T14:07:01.065Z,1.37
2023-02-03T14:09:43.209Z,1.33
2023-02-03T14:12:31.734Z,1.30
2023-02-03T14:15:05.211Z,1.40
2023-02-03T14:18:02.669Z,0.90
2023-02-03T14:20:51.352Z,1.20
2023-02-03T14:23:28.176Z,1.30
2023-02-03T14:25:59.404Z,0.90
2023-02-03T14:28:38.853Z,1.20
2023-02-03T14:31:16.157Z,1.07
2023-02-03T14:33:59.481Z,1.10
2023-02-03T14:36:33.721Z,1.10
2023-02-03T14:39:04.601Z,0.93
2023-02-03T14:41:47.757Z,1.00
2023-02-03T14:44:27.552Z,0.87
2023-02-03T14:47:11.889Z,1.17
2023-02-03T14:50:00.569Z,1.20
2023-02-03T14:52:42.565Z,1.40
2023-02-03T14:55:26.665Z,1.00
2023-02-03T14:58:00.840Z,1.17
2023-02-03T15:00:33.421Z,1.00
2023-02-03T15:03:25.426Z,1.20
2023-02-03T15:05:57.005Z,1.23
2023-02-03T15:08:42.456Z,1.03
2023-02-03T15:11:33.702Z,0.80
2023-02-03T15:14:22.190Z,1.10
2023-02-03T15:16:55.258Z,1.10
2023-02-03T15:19:26.941Z,1.00
2023-02-03T15:21:56.905Z,1.00
2023-02-03T15:24:25.902Z,1.10
2023-02-03T15:26:55.679Z,0.90
2023-02-03T15:29:29.633Z,0.97
2023-02-03T15:32:04.035Z,0.77
2023-02-03T15:34:39.413Z,1.07
2023-02-03T15:37:15.841Z,0.93
2023-02-03T15:40:01.401Z,0.83
2023-02-03T15:42:35.298Z,1.00
2023-02-03T15:45:08.184Z,0.90
2023-02-03T15:47:40.885Z,1.00
2023-02-03T15:50:28.481Z,0.80
2023-02-03T15:53:01.590Z,1.00
2023-02-03T15:55:34.906Z,0.90
2023-02-03T15:58:03.956Z,0.80
2023-02-03T16:00:39.683Z,0.83
2023-02-03T16:03:19.538Z,1.00
2023-02-03T16:05:50.313Z,0.80
2023-02-03T16:08:36.174Z,0.80
2023-02-03T16:11:19.232Z,0.67
2023-02-03T16:13:47.450Z,0.60
2023-02-03T16:16:19.134Z,0.67
2023-02-03T16:18:53.260Z,0.90
2023-02-03T16:21:31.675Z,0.70
2023-02-03T16:24:01.460Z,0.90
2023-02-03T16:26:31.077Z,1.10
2023-02-03T16:29:30.978Z,1.07
2023-02-03T16:32:17.235Z,0.90
2023-02-03T16:35:03.390Z,0.80
2023-02-03T16:37:50.755Z,0.77
2023-02-03T16:40:40.139Z,0.57
2023-02-03T16:43:30.589Z,0.80
2023-02-03T16:46:18.324Z,0.90
2023-02-03T16:49:04.278Z,1.03
2023-02-03T16:51:40.312Z,0.70
2023-02-03T16:54:11.027Z,0.73
2023-02-03T16:56:40.555Z,0.70
2023-02-03T16:59:09.326Z,0.70
2023-02-03T17:01:37.609Z,0.80
2023-02-03T17:04:05.878Z,1.00
2023-02-03T17:06:34.682Z,0.83
2023-02-03T17:09:02.790Z,1.33
2023-02-03T17:11:30.935Z,0.90
2023-02-03T17:14:00.493Z,0.90
2023-02-03T17:16:29.006Z,0.80
2023-02-03T17:18:57.183Z,1.00
2023-02-03T17:21:28.228Z,0.70
2023-02-03T17:23:56.968Z,0.67
2023-02-03T17:26:25.109Z,1.10
2023-02-03T17:28:53.223Z,0.67
2023-02-03T17:31:22.839Z,0.80
2023-02-03T17:33:53.470Z,1.03
2023-02-03T17:36:23.147Z,0.90
2023-02-03T17:55:31.118Z,0.77
2023-02-03T17:57:59.431Z,0.70
2023-02-03T18:00:28.526Z,1.33
2023-02-03T18:02:58.266Z,1.13
2023-02-03T18:05:26.433Z,1.10
2023-02-03T18:07:54.505Z,0.60
2023-02-03T18:10:22.814Z,0.60
2023-02-03T18:12:50.914Z,0.93
2023-02-03T18:15:19.120Z,0.90
2023-02-03T18:17:47.275Z,0.70
2023-02-03T18:20:17.057Z,0.93
2023-02-03T18:22:46.062Z,0.90
2023-02-03T18:25:17.164Z,1.33
2023-02-03T18:27:45.418Z,0.80
2023-02-03T18:30:15.113Z,0.93
2023-02-03T18:32:44.009Z,0.83
2023-02-03T18:35:16.709Z,0.60
2023-02-03T18:37:46.260Z,0.70
2023-02-03T18:40:14.420Z,0.70
2023-02-03T18:42:42.533Z,0.97
2023-02-03T18:45:12.316Z,0.70
2023-02-03T18:47:40.406Z,0.60
2023-02-03T18:50:08.680Z,1.00
2023-02-03T18:52:38.009Z,0.77
2023-02-03T18:55:09.175Z,0.90
2023-02-03T18:57:37.322Z,0.80
2023-02-03T19:00:06.613Z,0.63
2023-02-03T19:02:35.100Z,0.73
2023-02-03T19:05:04.239Z,1.13
2023-02-03T19:07:32.385Z,0.80
2023-02-03T19:10:00.610Z,0.90
2023-02-03T19:12:30.357Z,1.10
2023-02-03T19:14:58.951Z,1.27
2023-02-03T19:17:27.080Z,0.90
2023-02-03T19:19:55.135Z,1.07
2023-02-03T19:22:23.217Z,0.90
2023-02-03T19:24:51.292Z,1.00
2023-02-03T19:27:19.404Z,0.80
2023-02-03T19:29:48.935Z,1.10
2023-02-03T19:32:17.361Z,0.70
2023-02-03T19:34:45.440Z,0.90
2023-02-03T19:37:13.487Z,0.70
2023-02-03T19:39:41.638Z,0.80
2023-02-03T19:42:11.716Z,0.90
2023-02-03T19:44:39.863Z,1.00
2023-02-03T19:47:09.515Z,1.10
2023-02-03T19:49:37.699Z,1.27
2023-02-03T19:52:08.982Z,0.63
2023-02-03T19:54:37.376Z,0.80
2023-02-03T19:57:05.655Z,0.80
2023-02-03T19:59:33.717Z,1.10
2023-02-03T20:02:09.543Z,0.77
2023-02-03T20:04:44.186Z,0.70
2023-02-03T20:07:13.354Z,0.77
2023-02-03T20:09:41.505Z,1.00
2023-02-03T20:12:09.678Z,0.80
2023-02-03T20:14:37.772Z,0.80
2023-02-03T20:17:07.506Z,0.90
2023-02-03T20:19:35.806Z,0.70
2023-02-03T20:22:05.304Z,0.90
2023-02-03T20:24:34.756Z,0.70
2023-02-03T20:27:02.956Z,0.70
2023-02-03T20:29:31.078Z,1.07
2023-02-03T20:31:59.214Z,0.80
2023-02-03T20:34:28.463Z,0.73
2023-02-03T20:36:58.484Z,0.90
2023-02-03T20:39:28.612Z,0.70
2023-02-03T20:41:56.809Z,0.60
2023-02-03T20:44:24.949Z,0.63
2023-02-03T20:46:53.547Z,0.93
2023-02-03T20:49:21.685Z,0.97
2023-02-03T20:51:50.032Z,0.80
2023-02-03T20:54:21.312Z,0.93
2023-02-03T20:56:50.796Z,0.80
2023-02-03T20:59:20.176Z,0.60
2023-02-03T21:01:50.582Z,0.90
2023-02-03T21:04:37.567Z,1.03
2023-02-03T21:07:13.649Z,0.63
2023-02-03T21:09:41.780Z,0.93
2023-02-03T21:12:13.745Z,0.60
2023-02-03T21:14:43.988Z,0.90
2023-02-03T21:17:20.327Z,0.73
2023-02-03T21:19:48.590Z,0.70
2023-02-03T21:22:20.981Z,0.90
2023-02-03T21:24:54.319Z,0.60
2023-02-03T21:27:29.657Z,0.90
2023-02-03T21:29:58.903Z,1.00
2023-02-03T21:32:37.922Z,0.70
2023-02-03T21:35:24.061Z,0.70
2023-02-03T21:37:55.747Z,1.00
2023-02-03T21:40:26.285Z,0.80
2023-02-03T21:42:56.825Z,0.67
2023-02-03T21:45:40.000Z,1.20
2023-02-03T21:48:29.672Z,0.63
2023-02-03T21:51:01.070Z,0.70
2023-02-03T21:53:35.261Z,0.70
2023-02-03T21:56:18.626Z,1.00
2023-02-03T21:58:50.707Z,0.80
2023-02-03T22:01:20.122Z,0.60
2023-02-03T22:03:50.617Z,1.10
2023-02-03T22:06:23.945Z,0.60
2023-02-03T22:08:53.877Z,0.60
2023-02-03T22:11:24.922Z,0.70
2023-02-03T22:13:54.889Z,0.60
2023-02-03T22:16:23.215Z,1.00
2023-02-03T22:18:52.318Z,0.80
2023-02-03T22:21:20.565Z,0.80
2023-02-03T22:23:49.472Z,0.70
2023-02-03T22:26:18.567Z,0.90
2023-02-03T22:28:47.290Z,0.70
2023-02-03T22:31:17.685Z,0.80
2023-02-03T22:33:45.843Z,0.90
2023-02-03T22:36:14.486Z,0.90
2023-02-03T22:38:43.444Z,1.00
2023-02-03T22:41:13.018Z,0.60
2023-02-03T22:43:41.490Z,1.03
2023-02-03T22:46:10.060Z,0.67
2023-02-03T22:48:39.528Z,0.80
2023-02-03T22:51:07.948Z,0.93
2023-02-03T22:53:36.106Z,0.70
2023-02-03T22:56:04.296Z,0.70
2023-02-03T22:58:32.357Z,0.70
2023-02-03T23:01:00.453Z,0.70
2023-02-03T23:03:31.998Z,0.70
2023-02-03T23:06:01.723Z,0.77
2023-02-03T23:08:29.851Z,0.80
2023-02-03T23:10:58.025Z,0.80
2023-02-03T23:13:26.144Z,0.90
2023-02-03T23:15:54.248Z,0.90
2023-02-03T23:18:22.393Z,1.00
2023-02-03T23:20:50.471Z,1.27
2023-02-03T23:23:19.951Z,0.70
2023-02-03T23:25:48.050Z,0.60
2023-02-03T23:28:16.190Z,1.03
2023-02-03T23:30:44.417Z,0.83
2023-02-03T23:33:12.544Z,0.60
2023-02-03T23:35:45.790Z,0.70
2023-02-03T23:38:14.492Z,0.90
2023-02-03T23:40:44.975Z,0.77
2023-02-03T23:43:13.220Z,0.73
2023-02-03T23:45:41.529Z,0.70
2023-02-03T23:48:09.982Z,0.80
2023-02-03T23:50:38.096Z,0.97
2023-02-03T23:53:06.430Z,0.57
2023-02-03T23:55:36.294Z,0.73
2023-02-03T23:58:06.034Z,0.70
